Manzaneda, Spain
Current Conditions -  °F | °C
As of 7:00 AM on Monday 22 Dec 2014 (Local Time) from LEVX Reporting Station
Moderate Fog Moderate Fog  
Wind Chill: 36°   Ceiling: 200
Heat Index: 41°   Visibility: 0.56mi
Dew Point: 41°   Wind: 8mph
Humidity: 100%   Direction: 200°SSW
Pressure: 30.42"   Gusts: NA
Location:  42.31°N, 7.24°W
Report Text: LEVX 220600Z 20007KT 170V230 0900 0400E R20/P2000 R02/P2000FG BKN002 BKN005 05/05 Q1030 BECMG 4000 BR NSC
Loading
Personal Weather Stations






























Interactive Weather Map New forecast layout! Learn more

10-Day Weather Forecast

Advertisements
Track Severe Weather on mobile